LECO/LCG METAR and TAF weather

Enter ICAO airport designator
Station Type Date Time Source
LECO METAR 2020/11/28 19:30 UTC NOAA

LECO 281930Z 17005KT CAVOK 12/10 Q1005 NOSIG


Station Type Date Time Source
LECO Decoded METAR 2020/11/28 19:30 UTC NOAA

La Coruna / Alvedro, Spain (LECO) 43-18N 008-23W 103M
Nov 28, 2020 - 02:30 PM EST / 2020.11.28 1930 UTC
Wind: from the S (170 degrees) at 6 MPH (5 KT):0
Visibility: greater than 7 mile(s):0
Temperature: 53 F (12 C)
Dew Point: 50 F (10 C)
Relative Humidity: 87%
Pressure (altimeter): 29.68 in. Hg (1005 hPa)
ob: LECO 281930Z 17005KT CAVOK 12/10 Q1005 NOSIG
cycle: 19

Station Type Date Time Source
LECO TAF 2020/11/28 15:27 UTC NOAA

TAF LECO 281400Z 2815/2915 15008KT 9000 FEW020 TX17/2815Z TN08/2907Z PROB30
TEMPO 2900/2909 4000 RA BKN014

Example: see airport list